createdAt,value
2023-03-01T00:01:54.475Z,0.4
2023-03-01T00:03:59.091Z,0.4
2023-03-01T00:06:00.560Z,0.4
2023-03-01T00:08:02.006Z,0.4
2023-03-01T00:12:04.874Z,0.5
2023-03-01T00:14:06.303Z,0.3
2023-03-01T00:16:07.756Z,0.3
2023-03-01T00:18:12.431Z,0.4
2023-03-01T00:20:13.859Z,0.3
2023-03-01T00:22:15.285Z,0.3
2023-03-01T00:24:16.723Z,0.3
2023-03-01T00:28:19.594Z,0.4
2023-03-01T00:32:25.708Z,0.3
2023-03-01T00:34:27.135Z,0.3
2023-03-01T00:36:29.058Z,0.3
2023-03-01T00:38:29.988Z,0.2
2023-03-01T00:40:31.425Z,0.3
2023-03-01T00:42:32.845Z,0.1
2023-03-01T00:44:34.271Z,0.1
2023-03-01T00:46:40.627Z,0.1
2023-03-01T00:48:41.899Z,0.2
2023-03-01T00:50:43.351Z,0.1
2023-03-01T00:52:47.267Z,0.2
2023-03-01T00:54:48.691Z,0
2023-03-01T00:56:50.131Z,0.1
2023-03-01T00:58:54.049Z,0.1
2023-03-01T01:02:56.898Z,0
2023-03-01T01:05:00.794Z,0
2023-03-01T01:07:02.260Z,0
2023-03-01T01:09:03.652Z,0.1
2023-03-01T01:11:07.600Z,0
2023-03-01T01:13:09.010Z,0
2023-03-01T01:15:10.430Z,0.1
2023-03-01T01:23:21.109Z,-0.2
2023-03-01T01:27:23.774Z,-0.1
2023-03-01T01:29:27.702Z,-0.2
2023-03-01T01:31:29.243Z,-0.1
2023-03-01T01:33:30.518Z,-0.1
2023-03-01T01:35:34.476Z,-0.2
2023-03-01T01:37:35.867Z,-0.2
2023-03-01T01:39:37.281Z,-0.2
2023-03-01T01:41:41.175Z,-0.3
2023-03-01T01:45:43.986Z,-0.2
2023-03-01T01:47:47.920Z,-0.3
2023-03-01T01:49:49.336Z,-0.2
2023-03-01T01:53:54.625Z,-0.2
2023-03-01T01:55:56.005Z,-0.3
2023-03-01T01:57:57.409Z,-0.3
2023-03-01T02:00:01.334Z,-0.3
2023-03-01T02:02:02.756Z,-0.2
2023-03-01T02:04:04.173Z,-0.2
2023-03-01T02:06:08.069Z,-0.3
2023-03-01T02:08:09.479Z,-0.2
2023-03-01T02:10:10.881Z,-0.3
2023-03-01T02:12:14.765Z,-0.3
2023-03-01T02:14:16.192Z,-0.4
2023-03-01T02:16:17.618Z,-0.4
2023-03-01T02:18:21.489Z,-0.4
2023-03-01T02:20:22.923Z,-0.4
2023-03-01T02:22:24.351Z,-0.4
2023-03-01T02:24:28.188Z,-0.4
2023-03-01T02:26:29.845Z,-0.4
2023-03-01T02:28:30.990Z,-0.4
2023-03-01T02:30:34.894Z,-0.4
2023-03-01T02:32:36.285Z,-0.3
2023-03-01T02:34:37.678Z,-0.4
2023-03-01T02:36:41.592Z,-0.4
2023-03-01T02:40:44.333Z,-0.5
2023-03-01T02:42:48.252Z,-0.5
2023-03-01T02:44:49.641Z,-0.4
2023-03-01T02:46:51.109Z,-0.4
2023-03-01T02:50:56.307Z,-0.5
2023-03-01T02:52:57.703Z,-0.5
2023-03-01T02:55:01.598Z,-0.6
2023-03-01T02:57:03.010Z,-0.6
2023-03-01T03:01:08.365Z,-0.6
2023-03-01T03:03:09.655Z,-0.6
2023-03-01T03:05:11.083Z,-0.7
2023-03-01T03:07:14.956Z,-0.7
2023-03-01T03:09:16.815Z,-0.7
2023-03-01T03:11:17.692Z,-0.6
2023-03-01T03:13:21.603Z,-0.7
2023-03-01T03:15:22.985Z,-0.7
2023-03-01T03:17:24.368Z,-0.7
2023-03-01T03:19:28.250Z,-0.7
2023-03-01T03:23:31.024Z,-0.7
2023-03-01T03:25:34.904Z,-0.7
2023-03-01T03:29:37.644Z,-0.7
2023-03-01T03:31:41.648Z,-0.7
2023-03-01T03:35:44.393Z,-0.8
2023-03-01T03:37:48.230Z,-0.9
2023-03-01T03:39:49.610Z,-0.8
2023-03-01T03:41:50.966Z,-0.9
2023-03-01T03:43:54.879Z,-0.9
2023-03-01T03:45:56.338Z,-0.9
2023-03-01T03:47:57.635Z,-0.9
2023-03-01T03:50:01.534Z,-1
2023-03-01T03:52:02.910Z,-1
2023-03-01T03:54:04.265Z,-1
2023-03-01T03:56:08.161Z,-0.9
2023-03-01T03:58:09.533Z,-1
2023-03-01T04:00:10.901Z,-0.8
2023-03-01T04:02:14.822Z,-0.9
2023-03-01T04:06:17.528Z,-1
2023-03-01T04:08:21.415Z,-1
2023-03-01T04:10:22.788Z,-0.8
2023-03-01T04:12:24.168Z,-1
2023-03-01T04:14:28.058Z,-1.1
2023-03-01T04:16:29.765Z,-0.9
2023-03-01T04:18:30.790Z,-1
2023-03-01T04:20:34.686Z,-1.1
2023-03-01T04:22:36.041Z,-0.9
2023-03-01T04:24:37.396Z,-0.8
2023-03-01T04:26:41.279Z,-1
2023-03-01T04:30:44.020Z,-0.9
2023-03-01T04:32:47.918Z,-0.9
2023-03-01T04:34:49.275Z,-1
2023-03-01T04:45:01.185Z,-1.2
2023-03-01T04:47:02.580Z,-1.1
2023-03-01T04:51:07.794Z,-1.1
2023-03-01T04:53:09.161Z,-1.1
2023-03-01T04:55:10.548Z,-1.1
2023-03-01T04:57:14.404Z,-1.2
2023-03-01T04:59:15.768Z,-1.2
2023-03-01T05:03:21.016Z,-1.3
2023-03-01T05:07:23.742Z,-1.3
2023-03-01T05:09:27.633Z,-1.2
2023-03-01T05:13:30.353Z,-1.2
2023-03-01T05:21:40.797Z,-1.4
2023-03-01T05:23:42.182Z,-1.4
2023-03-01T05:27:47.403Z,-1.4
2023-03-01T05:29:48.771Z,-1.2
2023-03-01T05:31:50.170Z,-1.2
2023-03-01T05:35:55.392Z,-1.3
2023-03-01T05:37:56.716Z,-1.3
2023-03-01T05:40:00.600Z,-1.2
2023-03-01T05:42:01.931Z,-1.3
2023-03-01T05:48:08.529Z,-1.1
2023-03-01T05:52:13.719Z,-1.2
2023-03-01T05:58:20.321Z,-1.3
2023-03-01T06:00:21.672Z,-1.4
2023-03-01T06:02:23.002Z,-1.3
2023-03-01T06:04:32.763Z,-1.3
2023-03-01T06:08:35.485Z,-1.3
2023-03-01T06:10:39.351Z,-1.4
2023-03-01T06:12:40.694Z,-1.4
2023-03-01T06:16:45.914Z,-1.4
2023-03-01T06:20:48.586Z,-1.3
2023-03-01T06:24:53.782Z,-1.3
2023-03-01T06:26:55.124Z,-1.3
2023-03-01T06:31:06.242Z,-1.3
2023-03-01T06:33:07.540Z,-1.2
2023-03-01T06:35:11.892Z,-1.2
2023-03-01T06:37:12.740Z,-1.2
2023-03-01T06:41:17.964Z,-1.3
2023-03-01T06:43:19.287Z,-1.2
2023-03-01T06:53:31.090Z,-1.1
2023-03-01T06:55:32.467Z,-1.1
2023-03-01T06:57:33.782Z,-1
2023-03-01T07:03:40.351Z,-0.9
2023-03-01T07:11:50.776Z,-0.9
2023-03-01T07:22:00.130Z,-0.5
2023-03-01T07:24:03.933Z,-0.5
2023-03-01T07:26:05.312Z,-0.5
2023-03-01T07:30:10.621Z,-0.6
2023-03-01T07:32:12.137Z,-0.5
2023-03-01T07:40:19.957Z,0
2023-03-01T07:42:23.859Z,0
2023-03-01T07:44:25.266Z,0.2
2023-03-01T07:48:30.525Z,0.1
2023-03-01T07:50:31.924Z,0
2023-03-01T07:52:33.347Z,0.2
2023-03-01T07:54:37.232Z,0.5
2023-03-01T07:56:38.649Z,2.9
2023-03-01T08:01:08.631Z,7.7
2023-03-01T08:03:10.094Z,8.1
2023-03-01T08:05:11.571Z,8.7
2023-03-01T08:07:16.268Z,8.2
2023-03-01T08:09:17.756Z,7.9
2023-03-01T08:11:19.300Z,8
2023-03-01T08:13:20.845Z,6.9
2023-03-01T08:15:22.418Z,4.6
2023-03-01T08:19:26.327Z,2.5
2023-03-01T08:21:30.378Z,6.4
2023-03-01T08:23:31.934Z,7.4
2023-03-01T08:25:33.525Z,8.2
2023-03-01T08:27:35.123Z,8.8
2023-03-01T08:31:38.464Z,8.7
2023-03-01T08:33:39.930Z,9.6
2023-03-01T08:35:44.816Z,10.6
2023-03-01T08:37:46.429Z,10.5
2023-03-01T08:39:48.194Z,10.5
2023-03-01T08:41:49.726Z,10.7
2023-03-01T08:43:51.390Z,11.3
2023-03-01T08:45:53.094Z,11.1
2023-03-01T08:47:54.710Z,10.1
2023-03-01T08:49:59.648Z,10.7
2023-03-01T08:52:01.295Z,10.9
2023-03-01T08:54:02.962Z,11.1
2023-03-01T08:55:05.442Z,11.4
2023-03-01T08:57:07.132Z,11.4
2023-03-01T08:59:08.816Z,12.1
2023-03-01T09:01:10.520Z,11.7
2023-03-01T09:03:15.478Z,11.8
2023-03-01T09:05:19.920Z,11.8
2023-03-01T09:07:18.887Z,11.8
2023-03-01T09:09:20.628Z,12
2023-03-01T09:11:22.384Z,12.6
2023-03-01T09:13:24.054Z,12.6
2023-03-01T09:15:25.750Z,12.5
2023-03-01T09:17:30.746Z,12.1
2023-03-01T09:19:32.435Z,12.6
2023-03-01T09:21:40.593Z,12.9
2023-03-01T09:23:35.888Z,12.5
2023-03-01T09:25:37.651Z,13.1
2023-03-01T09:27:39.371Z,13.3
2023-03-01T09:29:41.152Z,13.1
2023-03-01T09:31:46.091Z,13.7
2023-03-01T09:35:49.557Z,14.3
2023-03-01T09:37:51.296Z,13.4
2023-03-01T09:39:53.036Z,12.9
2023-03-01T09:41:54.793Z,13.4
2023-03-01T09:43:56.747Z,13.1
2023-03-01T09:46:01.610Z,13.6
2023-03-01T09:48:03.263Z,13.9
2023-03-01T09:50:05.024Z,14.2
2023-03-01T09:51:07.492Z,12.7
2023-03-01T09:53:09.229Z,11.8
2023-03-01T09:55:10.995Z,11.8
2023-03-01T09:57:12.744Z,12.2
2023-03-01T10:03:21.245Z,12.8
2023-03-01T10:09:26.491Z,12.9
2023-03-01T10:17:36.773Z,12.1
2023-03-01T10:19:38.523Z,12.4
2023-03-01T10:21:40.275Z,11.1
2023-03-01T10:23:42.033Z,11
2023-03-01T10:25:43.810Z,11.8
2023-03-01T10:27:48.837Z,11.3
2023-03-01T10:29:50.555Z,12.2
2023-03-01T10:33:54.097Z,11
2023-03-01T10:35:55.874Z,10.3
2023-03-01T10:37:57.612Z,10.8
2023-03-01T10:39:59.369Z,12.4
2023-03-01T10:42:04.348Z,11.3
2023-03-01T10:44:06.119Z,10.9
2023-03-01T10:46:07.890Z,10.9
2023-03-01T10:47:10.387Z,11.1
2023-03-01T10:49:12.148Z,11.1
2023-03-01T10:51:13.900Z,11.5
2023-03-01T10:53:15.668Z,11.1
2023-03-01T10:55:20.656Z,11.6
2023-03-01T10:57:22.442Z,12
2023-03-01T10:59:24.180Z,13.5
2023-03-01T11:01:26.015Z,13.6
2023-03-01T11:03:27.727Z,13.5
2023-03-01T11:05:29.573Z,14.4
2023-03-01T11:07:31.259Z,14.1
2023-03-01T11:09:36.275Z,13.8
2023-03-01T11:11:38.015Z,13.3
2023-03-01T11:19:54.187Z,12.8
2023-03-01T11:21:46.886Z,14
2023-03-01T11:25:53.695Z,12.6
2023-03-01T11:27:55.465Z,13.6
2023-03-01T11:29:57.263Z,14.1
2023-03-01T11:31:59.201Z,15
2023-03-01T11:36:02.632Z,14.9
2023-03-01T11:42:18.654Z,14.1
2023-03-01T11:46:41.745Z,14.9
2023-03-01T11:48:49.851Z,13.8
2023-03-01T11:50:48.416Z,14.2
2023-03-01T11:52:50.192Z,14.9
2023-03-01T11:54:51.994Z,15.5
2023-03-01T11:56:53.767Z,14.8
2023-03-01T11:58:55.557Z,15
2023-03-01T12:00:58.026Z,15.8
2023-03-01T12:02:59.816Z,15.9
2023-03-01T12:05:04.848Z,14.5
2023-03-01T12:07:06.693Z,14.6
2023-03-01T12:09:08.423Z,13.9
2023-03-01T12:11:10.224Z,14.2
2023-03-01T12:13:12.015Z,15
2023-03-01T12:15:13.848Z,16.1
2023-03-01T12:17:15.634Z,16
2023-03-01T12:19:20.614Z,15.7
2023-03-01T12:25:26.013Z,13.8
2023-03-01T12:27:27.818Z,14.3
2023-03-01T12:29:29.611Z,14.2
2023-03-01T12:33:36.427Z,13
2023-03-01T12:35:38.224Z,13.4
2023-03-01T12:37:40.034Z,14.8
2023-03-01T12:38:42.531Z,15
2023-03-01T12:40:44.322Z,14.7
2023-03-01T12:42:46.099Z,13.9
2023-03-01T12:44:47.901Z,14.1
2023-03-01T12:50:56.496Z,15.4
2023-03-01T12:52:58.286Z,14.1
2023-03-01T12:55:00.117Z,14.3
2023-03-01T12:57:01.865Z,14.6
2023-03-01T13:03:10.469Z,16.2
2023-03-01T13:09:15.834Z,15.1
2023-03-01T13:13:19.408Z,14.6
2023-03-01T13:17:26.226Z,15.3
2023-03-01T13:19:28.023Z,15.7
2023-03-01T13:33:46.187Z,10
2023-03-01T13:34:46.265Z,9.9
2023-03-01T13:36:48.161Z,9.8
2023-03-01T13:40:51.602Z,10.2
2023-03-01T13:43:05.916Z,9.9
2023-03-01T13:44:59.909Z,9.8
2023-03-01T13:47:01.721Z,10.1
2023-03-01T13:49:03.453Z,9.9
2023-03-01T13:51:05.241Z,10.1
2023-03-01T13:53:06.983Z,10
2023-03-01T13:55:08.770Z,9.9
2023-03-01T13:57:13.767Z,9.4
2023-03-01T13:59:15.518Z,9.4
2023-03-01T14:01:17.368Z,9.5
2023-03-01T14:03:19.064Z,9.6
2023-03-01T14:05:20.809Z,9.5
2023-03-01T14:07:22.574Z,9.9
2023-03-01T14:09:24.344Z,10
2023-03-01T14:11:29.324Z,9.8
2023-03-01T14:13:31.076Z,9.9
2023-03-01T14:15:32.920Z,9.8
2023-03-01T14:17:34.587Z,9.7
2023-03-01T14:19:36.326Z,9.7
2023-03-01T14:21:38.089Z,9.7
2023-03-01T14:23:39.830Z,9.7
2023-03-01T14:25:44.818Z,9.7
2023-03-01T14:27:46.576Z,9.6
2023-03-01T14:29:48.319Z,9.4
2023-03-01T14:30:50.914Z,9.4
2023-03-01T14:32:52.570Z,9.3
2023-03-01T14:34:54.317Z,9.3
2023-03-01T14:36:56.060Z,9.3
2023-03-01T14:39:01.071Z,9.2
2023-03-01T14:41:04.057Z,9.2
2023-03-01T14:43:04.555Z,9.1
2023-03-01T14:45:06.308Z,9.2
2023-03-01T14:47:08.047Z,9
2023-03-01T14:49:09.829Z,8.8
2023-03-01T14:51:11.520Z,9
2023-03-01T14:53:16.506Z,8.7
2023-03-01T14:55:18.284Z,8.7
2023-03-01T15:05:26.901Z,9
2023-03-01T15:07:31.895Z,8.7
2023-03-01T15:09:33.614Z,8.8
2023-03-01T15:13:37.079Z,8.9
2023-03-01T15:15:38.872Z,8.9
2023-03-01T15:21:47.198Z,8.7
2023-03-01T15:28:19.270Z,8.7
2023-03-01T15:30:20.958Z,8.6
2023-03-01T15:32:22.753Z,8.7
2023-03-01T15:34:27.632Z,8.5
2023-03-01T15:36:29.509Z,8.6
2023-03-01T15:38:31.063Z,8.7
2023-03-01T15:40:32.838Z,8.8
2023-03-01T15:42:34.518Z,8.6
2023-03-01T15:44:43.316Z,8.5
2023-03-01T15:46:38.072Z,8.5
2023-03-01T15:48:42.916Z,9
2023-03-01T15:50:44.637Z,9.2
2023-03-01T15:52:46.360Z,9.5
2023-03-01T15:54:48.055Z,9.6
2023-03-01T15:56:49.775Z,9.7
2023-03-01T15:58:51.494Z,9.8
2023-03-01T16:01:00.920Z,9.7
2023-03-01T16:02:58.198Z,9.8
2023-03-01T16:07:01.609Z,9.6
2023-03-01T16:09:03.337Z,9.9
2023-03-01T16:13:06.812Z,9.6
2023-03-01T16:15:08.600Z,8.9
2023-03-01T16:21:16.996Z,8.1
2023-03-01T16:22:19.477Z,8
2023-03-01T16:30:29.642Z,7.7
2023-03-01T16:38:36.528Z,7.7
2023-03-01T16:40:38.257Z,7.5
2023-03-01T16:42:40.666Z,7.5
2023-03-01T16:44:44.897Z,7.4
2023-03-01T16:46:46.609Z,7.4
2023-03-01T16:48:48.415Z,7.4
2023-03-01T16:50:50.045Z,7.3
2023-03-01T16:52:51.758Z,7.2
2023-03-01T16:54:53.450Z,7.3
2023-03-01T16:59:01.659Z,7.1
2023-03-01T17:01:01.893Z,7
2023-03-01T17:05:05.182Z,6.8
2023-03-01T17:07:06.852Z,6.8
2023-03-01T17:09:08.559Z,6.8
2023-03-01T17:11:10.239Z,6.7
2023-03-01T17:13:15.157Z,6.7
2023-03-01T17:15:16.830Z,6.5
2023-03-01T17:17:18.532Z,6.6
2023-03-01T17:34:37.585Z,6.3
2023-03-01T17:40:45.705Z,6
2023-03-01T17:42:47.363Z,6
2023-03-01T17:44:49.009Z,6
2023-03-01T17:46:50.659Z,5.9
2023-03-01T17:48:52.329Z,6
2023-03-01T17:50:53.959Z,6
2023-03-01T17:52:55.635Z,5.7
2023-03-01T17:55:00.657Z,5.8
2023-03-01T17:57:02.159Z,5.8
2023-03-01T17:59:03.799Z,5.8
2023-03-01T18:01:05.479Z,5.6
2023-03-01T18:03:07.112Z,5.4
2023-03-01T18:05:08.753Z,5.6
2023-03-01T18:07:10.366Z,5.6
2023-03-01T18:09:15.280Z,5.4
2023-03-01T18:11:16.925Z,5.4
2023-03-01T18:13:18.583Z,5.3
2023-03-01T18:14:21.013Z,5.3
2023-03-01T18:18:24.295Z,5.3
2023-03-01T18:20:25.944Z,5.2
2023-03-01T18:22:30.829Z,5.1
2023-03-01T18:24:32.495Z,5.1
2023-03-01T18:30:37.429Z,5
2023-03-01T18:32:38.997Z,4.9
2023-03-01T18:38:47.169Z,5.1
2023-03-01T18:42:50.424Z,5
2023-03-01T18:44:52.032Z,4.9
2023-03-01T18:46:53.657Z,4.9
2023-03-01T18:51:00.210Z,4.8
2023-03-01T18:53:01.780Z,4.8
2023-03-01T18:55:03.372Z,4.8
2023-03-01T18:57:05.010Z,4.6
2023-03-01T18:59:06.623Z,4.7
2023-03-01T19:01:08.446Z,4.7
2023-03-01T19:03:09.860Z,4.7
2023-03-01T19:05:16.423Z,4.7
2023-03-01T19:07:16.324Z,4.8
2023-03-01T19:09:17.937Z,4.7
2023-03-01T19:11:46.521Z,4.7
2023-03-01T19:13:48.142Z,4.7
2023-03-01T19:15:49.766Z,4.7
2023-03-01T19:17:54.601Z,4.7
2023-03-01T19:19:56.187Z,4.7
2023-03-01T19:22:05.670Z,4.5
2023-03-01T19:23:59.404Z,4.5
2023-03-01T19:26:00.993Z,4.5
2023-03-01T19:28:02.612Z,4.5
2023-03-01T19:30:04.210Z,4.4
2023-03-01T19:32:09.140Z,4.3
2023-03-01T19:36:13.835Z,4.4
2023-03-01T19:38:15.375Z,4.4
2023-03-01T19:40:16.958Z,4.3
2023-03-01T19:42:18.577Z,4.3
2023-03-01T19:44:20.178Z,4.2
2023-03-01T19:46:25.106Z,4.2
2023-03-01T19:48:26.608Z,4.2
2023-03-01T19:50:28.214Z,4.2
2023-03-01T19:52:29.776Z,4.2
2023-03-01T19:54:31.365Z,4.1
2023-03-01T19:56:33.428Z,4
2023-03-01T19:58:34.550Z,3.9
2023-03-01T20:00:39.391Z,3.9
2023-03-01T20:02:41.030Z,3.8
2023-03-01T20:04:42.640Z,3.7
2023-03-01T20:05:44.984Z,3.8
2023-03-01T20:07:46.579Z,3.7
2023-03-01T20:09:48.150Z,3.7
2023-03-01T20:11:49.770Z,3.6
2023-03-01T20:13:54.582Z,3.6
2023-03-01T20:15:56.175Z,3.7
2023-03-01T20:17:57.736Z,3.7
2023-03-01T20:19:59.385Z,3.6
2023-03-01T20:22:00.891Z,3.6
2023-03-01T20:24:02.475Z,3.5
2023-03-01T20:26:04.072Z,3.8
2023-03-01T20:32:12.013Z,3.6
2023-03-01T20:34:13.553Z,3.6
2023-03-01T20:36:15.126Z,3.5
2023-03-01T20:38:16.684Z,3.5
2023-03-01T20:40:18.251Z,3.4
2023-03-01T20:42:23.060Z,3.4
2023-03-01T20:44:24.597Z,3.4
2023-03-01T20:46:26.175Z,3.4
2023-03-01T20:48:27.792Z,3.4
2023-03-01T20:50:29.300Z,3.4
2023-03-01T20:52:36.614Z,3.2
2023-03-01T20:54:32.429Z,3.3
2023-03-01T20:56:37.211Z,3.3
2023-03-01T20:58:38.777Z,3.2
2023-03-01T21:03:44.296Z,3.1
2023-03-01T21:11:53.696Z,3.2
2023-03-01T21:13:55.268Z,3
2023-03-01T21:15:56.840Z,2.9
2023-03-01T21:17:58.344Z,2.9
2023-03-01T21:19:59.908Z,2.8
2023-03-01T21:22:01.472Z,2.8
2023-03-01T21:24:06.234Z,2.8
2023-03-01T21:30:10.861Z,2.8
2023-03-01T21:32:12.516Z,2.8
2023-03-01T21:36:15.472Z,2.8
2023-03-01T21:40:21.785Z,2.8
2023-03-01T21:42:23.294Z,2.9
2023-03-01T21:44:24.844Z,2.9
2023-03-01T21:46:26.366Z,2.8
2023-03-01T21:48:27.910Z,2.8
2023-03-01T21:50:29.453Z,2.8
2023-03-01T21:52:34.195Z,2.7
2023-03-01T21:54:35.737Z,2.7
2023-03-01T21:56:37.248Z,2.6
2023-03-01T21:59:41.181Z,2.7
2023-03-01T22:01:42.731Z,2.7
2023-03-01T22:03:44.270Z,2.6
2023-03-01T22:09:52.129Z,2.5
2023-03-01T22:11:53.662Z,2.4
2023-03-01T22:15:56.727Z,2.3
2023-03-01T22:17:58.255Z,2.3
2023-03-01T22:20:03.039Z,2.3
2023-03-01T22:22:04.547Z,2.4
2023-03-01T22:24:06.066Z,2.3
2023-03-01T22:36:18.473Z,2.3
2023-03-01T22:38:19.980Z,2.1
2023-03-01T22:40:21.511Z,2.1
2023-03-01T22:44:24.568Z,2.1
2023-03-01T22:46:26.073Z,2.1
2023-03-01T22:48:30.814Z,2.1
2023-03-01T22:50:32.340Z,2
2023-03-01T22:52:33.845Z,2.1
2023-03-01T22:55:02.409Z,1.9
2023-03-01T22:57:03.932Z,2
2023-03-01T22:59:05.441Z,2
2023-03-01T23:01:10.207Z,2
2023-03-01T23:03:11.914Z,1.9
2023-03-01T23:05:13.240Z,2
2023-03-01T23:07:14.763Z,2
2023-03-01T23:09:16.243Z,2.1
2023-03-01T23:11:17.782Z,2.2
2023-03-01T23:13:19.275Z,2.3
2023-03-01T23:15:24.048Z,2.2
2023-03-01T23:17:25.571Z,2.1
2023-03-01T23:27:33.107Z,2.4
2023-03-01T23:33:40.957Z,2.4
2023-03-01T23:43:51.824Z,2.4
2023-03-01T23:45:53.415Z,2.4
2023-03-01T23:55:01.925Z,2.7
2023-03-01T23:57:06.709Z,2.6
2023-03-01T23:59:08.241Z,2.7
